Terminal Aerodrome Forecast
Issued by NWS

Home | Current Version | Previous Version | Text Only | Print | Product List | Glossary On
Versions: 1 2 3 4 5 6 7 8 9 10 11 12 13 14 15 16 17 18 19 20 21 22 23 24 25
926
FTUS41 KOKX 221137
TAFHPN
TAF
KHPN 221137Z 2212/2312 VRB02KT P6SM BKN250
     FM221700 16005KT P6SM BKN250
     FM222300 VRB02KT P6SM BKN250
     FM230800 VRB02KT 3SM BR SCT010 BKN250
      AMD NOT SKED=

USA.gov is the U.S. government's official web portal to all federal, state and local government web resources and services.